sensor_id;sensor_type;location;lat;lon;timestamp;P1;durP1;ratioP1;P2;durP2;ratioP2
3647;SDS011;1840;48.892;15.312;2022-08-19T00:01:43;11.03;;;4.67;;
3647;SDS011;1840;48.892;15.312;2022-08-19T00:04:21;10.43;;;4.37;;
3647;SDS011;1840;48.892;15.312;2022-08-19T00:06:50;8.23;;;3.77;;
3647;SDS011;1840;48.892;15.312;2022-08-19T00:09:19;6.80;;;4.67;;
3647;SDS011;1840;48.892;15.312;2022-08-19T00:11:48;7.00;;;3.90;;
3647;SDS011;1840;48.892;15.312;2022-08-19T00:14:18;6.40;;;3.37;;
3647;SDS011;1840;48.892;15.312;2022-08-19T00:16:48;6.80;;;3.20;;
3647;SDS011;1840;48.892;15.312;2022-08-19T00:19:17;10.57;;;3.60;;
3647;SDS011;1840;48.892;15.312;2022-08-19T00:21:47;7.50;;;4.30;;
3647;SDS011;1840;48.892;15.312;2022-08-19T00:24:15;10.47;;;5.23;;
3647;SDS011;1840;48.892;15.312;2022-08-19T00:26:43;14.60;;;4.67;;
3647;SDS011;1840;48.892;15.312;2022-08-19T00:29:13;11.50;;;4.23;;
3647;SDS011;1840;48.892;15.312;2022-08-19T00:31:42;13.00;;;4.30;;
3647;SDS011;1840;48.892;15.312;2022-08-19T00:34:11;10.10;;;4.17;;
3647;SDS011;1840;48.892;15.312;2022-08-19T00:36:42;5.97;;;3.70;;
3647;SDS011;1840;48.892;15.312;2022-08-19T00:39:10;9.00;;;3.83;;
3647;SDS011;1840;48.892;15.312;2022-08-19T00:41:40;7.67;;;3.97;;
3647;SDS011;1840;48.892;15.312;2022-08-19T00:44:10;6.67;;;3.80;;
3647;SDS011;1840;48.892;15.312;2022-08-19T00:46:41;7.40;;;3.40;;
3647;SDS011;1840;48.892;15.312;2022-08-19T00:49:24;7.63;;;4.20;;
3647;SDS011;1840;48.892;15.312;2022-08-19T00:51:59;9.03;;;3.80;;
3647;SDS011;1840;48.892;15.312;2022-08-19T00:54:31;8.00;;;4.10;;
3647;SDS011;1840;48.892;15.312;2022-08-19T00:57:00;10.37;;;4.10;;
3647;SDS011;1840;48.892;15.312;2022-08-19T00:59:32;11.33;;;4.07;;
3647;SDS011;1840;48.892;15.312;2022-08-19T01:02:24;8.77;;;4.10;;
3647;SDS011;1840;48.892;15.312;2022-08-19T01:04:53;9.13;;;3.90;;
3647;SDS011;1840;48.892;15.312;2022-08-19T01:07:23;9.57;;;4.43;;
3647;SDS011;1840;48.892;15.312;2022-08-19T01:09:52;10.33;;;4.20;;
3647;SDS011;1840;48.892;15.312;2022-08-19T01:12:20;10.40;;;4.10;;
3647;SDS011;1840;48.892;15.312;2022-08-19T01:14:49;14.27;;;4.33;;
3647;SDS011;1840;48.892;15.312;2022-08-19T01:17:18;8.13;;;4.30;;
3647;SDS011;1840;48.892;15.312;2022-08-19T01:19:47;11.50;;;4.53;;
3647;SDS011;1840;48.892;15.312;2022-08-19T01:22:16;9.70;;;4.30;;
3647;SDS011;1840;48.892;15.312;2022-08-19T01:24:59;6.57;;;3.83;;
3647;SDS011;1840;48.892;15.312;2022-08-19T01:27:36;8.87;;;4.10;;
3647;SDS011;1840;48.892;15.312;2022-08-19T01:30:09;10.60;;;4.47;;
3647;SDS011;1840;48.892;15.312;2022-08-19T01:32:41;17.43;;;4.27;;
3647;SDS011;1840;48.892;15.312;2022-08-19T01:35:10;17.07;;;3.63;;
3647;SDS011;1840;48.892;15.312;2022-08-19T01:37:45;11.47;;;3.90;;
3647;SDS011;1840;48.892;15.312;2022-08-19T01:40:17;11.03;;;3.40;;
3647;SDS011;1840;48.892;15.312;2022-08-19T01:42:46;6.53;;;3.50;;
3647;SDS011;1840;48.892;15.312;2022-08-19T01:45:16;8.83;;;3.17;;
3647;SDS011;1840;48.892;15.312;2022-08-19T01:47:44;12.27;;;3.70;;
3647;SDS011;1840;48.892;15.312;2022-08-19T01:50:28;9.73;;;3.60;;
3647;SDS011;1840;48.892;15.312;2022-08-19T01:52:57;7.93;;;3.63;;
3647;SDS011;1840;48.892;15.312;2022-08-19T01:55:35;12.43;;;3.57;;
3647;SDS011;1840;48.892;15.312;2022-08-19T01:58:07;9.97;;;4.23;;
3647;SDS011;1840;48.892;15.312;2022-08-19T02:00:38;13.57;;;4.40;;
3647;SDS011;1840;48.892;15.312;2022-08-19T02:03:07;19.07;;;5.27;;
3647;SDS011;1840;48.892;15.312;2022-08-19T02:05:37;11.63;;;4.40;;
3647;SDS011;1840;48.892;15.312;2022-08-19T02:08:06;13.50;;;4.23;;
3647;SDS011;1840;48.892;15.312;2022-08-19T02:10:37;8.17;;;4.20;;
3647;SDS011;1840;48.892;15.312;2022-08-19T02:13:06;10.80;;;5.03;;
3647;SDS011;1840;48.892;15.312;2022-08-19T02:15:36;17.40;;;4.50;;
3647;SDS011;1840;48.892;15.312;2022-08-19T02:18:04;10.63;;;4.80;;
3647;SDS011;1840;48.892;15.312;2022-08-19T02:20:33;11.50;;;3.70;;
3647;SDS011;1840;48.892;15.312;2022-08-19T02:23:02;16.87;;;4.20;;
3647;SDS011;1840;48.892;15.312;2022-08-19T02:25:43;10.43;;;3.77;;
3647;SDS011;1840;48.892;15.312;2022-08-19T02:28:12;7.50;;;3.80;;
3647;SDS011;1840;48.892;15.312;2022-08-19T02:30:44;8.13;;;3.27;;
3647;SDS011;1840;48.892;15.312;2022-08-19T02:33:14;12.43;;;4.27;;
3647;SDS011;1840;48.892;15.312;2022-08-19T02:35:42;9.93;;;4.00;;
3647;SDS011;1840;48.892;15.312;2022-08-19T02:38:11;15.47;;;3.50;;
3647;SDS011;1840;48.892;15.312;2022-08-19T02:40:57;8.13;;;3.37;;
3647;SDS011;1840;48.892;15.312;2022-08-19T02:43:26;7.13;;;3.60;;
3647;SDS011;1840;48.892;15.312;2022-08-19T02:45:59;17.87;;;4.43;;
3647;SDS011;1840;48.892;15.312;2022-08-19T02:48:27;20.80;;;3.70;;
3647;SDS011;1840;48.892;15.312;2022-08-19T02:50:56;9.70;;;4.43;;
3647;SDS011;1840;48.892;15.312;2022-08-19T02:53:26;16.40;;;4.20;;
3647;SDS011;1840;48.892;15.312;2022-08-19T02:55:55;20.83;;;4.73;;
3647;SDS011;1840;48.892;15.312;2022-08-19T02:58:24;8.40;;;3.90;;
3647;SDS011;1840;48.892;15.312;2022-08-19T03:00:55;5.93;;;3.53;;
3647;SDS011;1840;48.892;15.312;2022-08-19T03:03:24;17.10;;;4.23;;
3647;SDS011;1840;48.892;15.312;2022-08-19T03:06:02;13.60;;;4.10;;
3647;SDS011;1840;48.892;15.312;2022-08-19T03:08:34;11.20;;;4.23;;
3647;SDS011;1840;48.892;15.312;2022-08-19T03:11:04;11.57;;;4.00;;
3647;SDS011;1840;48.892;15.312;2022-08-19T03:13:33;10.43;;;4.50;;
3647;SDS011;1840;48.892;15.312;2022-08-19T03:16:04;16.03;;;4.17;;
3647;SDS011;1840;48.892;15.312;2022-08-19T03:18:32;12.47;;;4.20;;
3647;SDS011;1840;48.892;15.312;2022-08-19T03:21:00;10.27;;;4.50;;
3647;SDS011;1840;48.892;15.312;2022-08-19T03:23:28;11.93;;;4.10;;
3647;SDS011;1840;48.892;15.312;2022-08-19T03:25:56;9.57;;;3.97;;
3647;SDS011;1840;48.892;15.312;2022-08-19T03:28:43;7.30;;;3.70;;
3647;SDS011;1840;48.892;15.312;2022-08-19T03:31:24;8.60;;;3.77;;
3647;SDS011;1840;48.892;15.312;2022-08-19T03:34:14;8.53;;;3.77;;
3647;SDS011;1840;48.892;15.312;2022-08-19T03:36:45;11.23;;;3.50;;
3647;SDS011;1840;48.892;15.312;2022-08-19T03:39:14;7.70;;;3.13;;
3647;SDS011;1840;48.892;15.312;2022-08-19T03:41:43;5.87;;;3.00;;
3647;SDS011;1840;48.892;15.312;2022-08-19T03:44:16;10.17;;;3.93;;
3647;SDS011;1840;48.892;15.312;2022-08-19T03:46:47;10.50;;;3.00;;
3647;SDS011;1840;48.892;15.312;2022-08-19T03:49:17;6.33;;;3.63;;
3647;SDS011;1840;48.892;15.312;2022-08-19T03:51:46;6.50;;;3.47;;
3647;SDS011;1840;48.892;15.312;2022-08-19T03:54:16;13.83;;;3.97;;
3647;SDS011;1840;48.892;15.312;2022-08-19T03:56:46;17.40;;;4.10;;
3647;SDS011;1840;48.892;15.312;2022-08-19T03:59:18;11.33;;;4.30;;
3647;SDS011;1840;48.892;15.312;2022-08-19T04:01:51;10.20;;;3.80;;
3647;SDS011;1840;48.892;15.312;2022-08-19T04:04:20;11.43;;;3.70;;
3647;SDS011;1840;48.892;15.312;2022-08-19T04:06:48;10.77;;;4.70;;
3647;SDS011;1840;48.892;15.312;2022-08-19T04:09:18;11.27;;;4.33;;
3647;SDS011;1840;48.892;15.312;2022-08-19T04:11:47;7.90;;;4.20;;
3647;SDS011;1840;48.892;15.312;2022-08-19T04:14:22;9.87;;;4.60;;
3647;SDS011;1840;48.892;15.312;2022-08-19T04:16:52;14.00;;;4.57;;
3647;SDS011;1840;48.892;15.312;2022-08-19T04:19:20;8.23;;;4.40;;
3647;SDS011;1840;48.892;15.312;2022-08-19T04:21:50;12.57;;;5.70;;
3647;SDS011;1840;48.892;15.312;2022-08-19T04:24:20;12.90;;;5.40;;
3647;SDS011;1840;48.892;15.312;2022-08-19T04:26:50;12.10;;;5.10;;
3647;SDS011;1840;48.892;15.312;2022-08-19T04:29:18;10.27;;;4.93;;
3647;SDS011;1840;48.892;15.312;2022-08-19T04:31:52;15.70;;;4.40;;
3647;SDS011;1840;48.892;15.312;2022-08-19T04:34:22;10.43;;;4.30;;
3647;SDS011;1840;48.892;15.312;2022-08-19T04:36:52;13.73;;;5.60;;
3647;SDS011;1840;48.892;15.312;2022-08-19T04:39:22;7.73;;;4.47;;
3647;SDS011;1840;48.892;15.312;2022-08-19T04:42:12;17.70;;;4.80;;
3647;SDS011;1840;48.892;15.312;2022-08-19T04:44:59;21.83;;;7.03;;
3647;SDS011;1840;48.892;15.312;2022-08-19T04:47:30;8.83;;;5.33;;
3647;SDS011;1840;48.892;15.312;2022-08-19T04:50:19;15.70;;;5.83;;
3647;SDS011;1840;48.892;15.312;2022-08-19T04:52:49;10.67;;;6.10;;
3647;SDS011;1840;48.892;15.312;2022-08-19T04:55:18;13.23;;;4.83;;
3647;SDS011;1840;48.892;15.312;2022-08-19T04:57:46;11.43;;;6.00;;
3647;SDS011;1840;48.892;15.312;2022-08-19T05:00:16;11.70;;;5.50;;
3647;SDS011;1840;48.892;15.312;2022-08-19T05:02:44;11.13;;;6.00;;
3647;SDS011;1840;48.892;15.312;2022-08-19T05:05:13;14.60;;;6.23;;
3647;SDS011;1840;48.892;15.312;2022-08-19T05:07:41;19.17;;;6.23;;
3647;SDS011;1840;48.892;15.312;2022-08-19T05:10:09;10.70;;;5.83;;
3647;SDS011;1840;48.892;15.312;2022-08-19T05:12:37;17.40;;;6.17;;
3647;SDS011;1840;48.892;15.312;2022-08-19T05:15:06;20.60;;;6.23;;
3647;SDS011;1840;48.892;15.312;2022-08-19T05:17:37;19.73;;;5.47;;
3647;SDS011;1840;48.892;15.312;2022-08-19T05:20:25;11.87;;;5.63;;
3647;SDS011;1840;48.892;15.312;2022-08-19T05:23:10;8.83;;;5.03;;
3647;SDS011;1840;48.892;15.312;2022-08-19T05:25:48;16.30;;;5.37;;
3647;SDS011;1840;48.892;15.312;2022-08-19T05:28:17;14.83;;;5.90;;
3647;SDS011;1840;48.892;15.312;2022-08-19T05:30:46;15.00;;;6.03;;
3647;SDS011;1840;48.892;15.312;2022-08-19T05:33:15;11.73;;;5.57;;
3647;SDS011;1840;48.892;15.312;2022-08-19T05:35:44;10.57;;;5.80;;
3647;SDS011;1840;48.892;15.312;2022-08-19T05:38:12;12.33;;;5.90;;
3647;SDS011;1840;48.892;15.312;2022-08-19T05:40:40;12.23;;;5.70;;
3647;SDS011;1840;48.892;15.312;2022-08-19T05:43:12;14.20;;;6.20;;
3647;SDS011;1840;48.892;15.312;2022-08-19T05:45:42;12.70;;;5.83;;
3647;SDS011;1840;48.892;15.312;2022-08-19T05:48:11;7.77;;;5.10;;
3647;SDS011;1840;48.892;15.312;2022-08-19T05:50:41;12.60;;;5.20;;
3647;SDS011;1840;48.892;15.312;2022-08-19T05:53:11;8.07;;;5.00;;
3647;SDS011;1840;48.892;15.312;2022-08-19T05:55:42;12.03;;;6.37;;
3647;SDS011;1840;48.892;15.312;2022-08-19T05:58:10;18.03;;;6.60;;
3647;SDS011;1840;48.892;15.312;2022-08-19T06:00:38;11.70;;;6.80;;
3647;SDS011;1840;48.892;15.312;2022-08-19T06:03:07;17.33;;;6.70;;
3647;SDS011;1840;48.892;15.312;2022-08-19T06:05:38;20.53;;;7.23;;
3647;SDS011;1840;48.892;15.312;2022-08-19T06:08:18;16.83;;;6.80;;
3647;SDS011;1840;48.892;15.312;2022-08-19T06:11:12;13.33;;;6.83;;
3647;SDS011;1840;48.892;15.312;2022-08-19T06:13:45;14.40;;;6.60;;
3647;SDS011;1840;48.892;15.312;2022-08-19T06:16:25;18.27;;;8.20;;
3647;SDS011;1840;48.892;15.312;2022-08-19T06:18:54;18.50;;;8.27;;
3647;SDS011;1840;48.892;15.312;2022-08-19T06:21:26;15.53;;;7.20;;
3647;SDS011;1840;48.892;15.312;2022-08-19T06:23:56;17.70;;;8.07;;
3647;SDS011;1840;48.892;15.312;2022-08-19T06:26:25;18.63;;;7.77;;
3647;SDS011;1840;48.892;15.312;2022-08-19T06:28:53;16.27;;;7.90;;
3647;SDS011;1840;48.892;15.312;2022-08-19T06:31:23;10.70;;;7.10;;
3647;SDS011;1840;48.892;15.312;2022-08-19T06:33:52;20.70;;;8.10;;
3647;SDS011;1840;48.892;15.312;2022-08-19T06:36:21;18.30;;;7.73;;
3647;SDS011;1840;48.892;15.312;2022-08-19T06:38:59;12.93;;;7.00;;
3647;SDS011;1840;48.892;15.312;2022-08-19T06:41:27;10.20;;;6.77;;
3647;SDS011;1840;48.892;15.312;2022-08-19T06:43:56;15.83;;;8.03;;
3647;SDS011;1840;48.892;15.312;2022-08-19T06:46:25;17.33;;;8.47;;
3647;SDS011;1840;48.892;15.312;2022-08-19T06:48:54;13.50;;;8.20;;
3647;SDS011;1840;48.892;15.312;2022-08-19T06:51:22;15.60;;;8.40;;
3647;SDS011;1840;48.892;15.312;2022-08-19T06:53:58;17.97;;;8.47;;
3647;SDS011;1840;48.892;15.312;2022-08-19T06:56:28;21.13;;;9.37;;
3647;SDS011;1840;48.892;15.312;2022-08-19T06:59:00;21.50;;;8.73;;
3647;SDS011;1840;48.892;15.312;2022-08-19T07:01:29;14.20;;;8.20;;
3647;SDS011;1840;48.892;15.312;2022-08-19T07:03:57;14.53;;;8.67;;
3647;SDS011;1840;48.892;15.312;2022-08-19T07:06:27;14.70;;;8.03;;
3647;SDS011;1840;48.892;15.312;2022-08-19T07:09:11;16.63;;;9.57;;
3647;SDS011;1840;48.892;15.312;2022-08-19T07:11:44;18.80;;;9.00;;
3647;SDS011;1840;48.892;15.312;2022-08-19T07:14:13;24.33;;;10.13;;
3647;SDS011;1840;48.892;15.312;2022-08-19T07:16:45;22.63;;;10.13;;
3647;SDS011;1840;48.892;15.312;2022-08-19T07:19:20;14.30;;;9.13;;
3647;SDS011;1840;48.892;15.312;2022-08-19T07:21:50;12.90;;;10.10;;
3647;SDS011;1840;48.892;15.312;2022-08-19T07:24:21;21.80;;;10.37;;
3647;SDS011;1840;48.892;15.312;2022-08-19T07:26:51;16.03;;;9.43;;
3647;SDS011;1840;48.892;15.312;2022-08-19T07:29:21;21.83;;;10.17;;
3647;SDS011;1840;48.892;15.312;2022-08-19T07:31:54;15.47;;;9.30;;
3647;SDS011;1840;48.892;15.312;2022-08-19T07:34:26;18.47;;;10.63;;
3647;SDS011;1840;48.892;15.312;2022-08-19T07:36:56;16.50;;;10.17;;
3647;SDS011;1840;48.892;15.312;2022-08-19T07:39:27;19.33;;;9.57;;
3647;SDS011;1840;48.892;15.312;2022-08-19T07:41:57;24.07;;;10.43;;
3647;SDS011;1840;48.892;15.312;2022-08-19T07:44:27;17.60;;;10.93;;
3647;SDS011;1840;48.892;15.312;2022-08-19T07:46:56;15.87;;;10.27;;
3647;SDS011;1840;48.892;15.312;2022-08-19T07:49:26;17.70;;;10.43;;
3647;SDS011;1840;48.892;15.312;2022-08-19T07:51:56;18.77;;;10.73;;
3647;SDS011;1840;48.892;15.312;2022-08-19T07:54:30;27.33;;;11.57;;
3647;SDS011;1840;48.892;15.312;2022-08-19T07:57:00;19.30;;;11.07;;
3647;SDS011;1840;48.892;15.312;2022-08-19T07:59:29;19.80;;;10.87;;
3647;SDS011;1840;48.892;15.312;2022-08-19T08:01:58;15.83;;;9.90;;
3647;SDS011;1840;48.892;15.312;2022-08-19T08:04:27;14.70;;;10.13;;
3647;SDS011;1840;48.892;15.312;2022-08-19T08:07:13;17.43;;;11.00;;
3647;SDS011;1840;48.892;15.312;2022-08-19T08:10:00;18.97;;;11.53;;
3647;SDS011;1840;48.892;15.312;2022-08-19T08:12:30;15.50;;;10.90;;
3647;SDS011;1840;48.892;15.312;2022-08-19T08:15:03;19.90;;;12.50;;
3647;SDS011;1840;48.892;15.312;2022-08-19T08:17:38;14.77;;;10.77;;
3647;SDS011;1840;48.892;15.312;2022-08-19T08:20:17;18.20;;;11.23;;
3647;SDS011;1840;48.892;15.312;2022-08-19T08:22:46;21.10;;;11.80;;
3647;SDS011;1840;48.892;15.312;2022-08-19T08:25:34;13.97;;;10.77;;
3647;SDS011;1840;48.892;15.312;2022-08-19T08:28:04;16.50;;;9.43;;
3647;SDS011;1840;48.892;15.312;2022-08-19T08:30:36;21.47;;;10.13;;
3647;SDS011;1840;48.892;15.312;2022-08-19T08:33:10;16.40;;;11.33;;
3647;SDS011;1840;48.892;15.312;2022-08-19T08:35:40;16.80;;;11.07;;
3647;SDS011;1840;48.892;15.312;2022-08-19T08:38:09;17.47;;;11.67;;
3647;SDS011;1840;48.892;15.312;2022-08-19T08:40:42;21.60;;;11.67;;
3647;SDS011;1840;48.892;15.312;2022-08-19T08:43:21;18.10;;;11.00;;
3647;SDS011;1840;48.892;15.312;2022-08-19T08:45:59;19.90;;;11.80;;
3647;SDS011;1840;48.892;15.312;2022-08-19T08:48:34;19.00;;;11.30;;
3647;SDS011;1840;48.892;15.312;2022-08-19T08:51:07;24.17;;;11.70;;
3647;SDS011;1840;48.892;15.312;2022-08-19T08:53:45;19.73;;;12.70;;
3647;SDS011;1840;48.892;15.312;2022-08-19T08:56:22;21.00;;;12.60;;
3647;SDS011;1840;48.892;15.312;2022-08-19T08:58:54;17.60;;;12.10;;
3647;SDS011;1840;48.892;15.312;2022-08-19T09:01:26;30.43;;;12.77;;
3647;SDS011;1840;48.892;15.312;2022-08-19T09:03:56;16.20;;;11.40;;
3647;SDS011;1840;48.892;15.312;2022-08-19T09:06:29;21.67;;;12.80;;
3647;SDS011;1840;48.892;15.312;2022-08-19T09:09:10;21.40;;;12.57;;
3647;SDS011;1840;48.892;15.312;2022-08-19T09:11:47;22.63;;;12.57;;
3647;SDS011;1840;48.892;15.312;2022-08-19T09:14:34;23.13;;;12.90;;
3647;SDS011;1840;48.892;15.312;2022-08-19T09:17:17;16.30;;;11.90;;
3647;SDS011;1840;48.892;15.312;2022-08-19T09:19:55;16.10;;;12.37;;
3647;SDS011;1840;48.892;15.312;2022-08-19T09:22:26;19.07;;;11.40;;
3647;SDS011;1840;48.892;15.312;2022-08-19T09:24:55;21.57;;;11.00;;
3647;SDS011;1840;48.892;15.312;2022-08-19T09:27:25;16.37;;;11.27;;
3647;SDS011;1840;48.892;15.312;2022-08-19T09:30:09;17.10;;;10.50;;
3647;SDS011;1840;48.892;15.312;2022-08-19T09:32:41;16.80;;;9.97;;
3647;SDS011;1840;48.892;15.312;2022-08-19T09:35:10;15.63;;;10.70;;
3647;SDS011;1840;48.892;15.312;2022-08-19T09:37:39;16.40;;;10.83;;
3647;SDS011;1840;48.892;15.312;2022-08-19T09:40:09;20.10;;;11.63;;
3647;SDS011;1840;48.892;15.312;2022-08-19T09:42:40;20.13;;;10.73;;
3647;SDS011;1840;48.892;15.312;2022-08-19T09:45:19;14.13;;;10.80;;
3647;SDS011;1840;48.892;15.312;2022-08-19T09:47:49;18.33;;;10.20;;
3647;SDS011;1840;48.892;15.312;2022-08-19T09:50:20;14.30;;;9.27;;
3647;SDS011;1840;48.892;15.312;2022-08-19T09:52:48;16.07;;;9.17;;
3647;SDS011;1840;48.892;15.312;2022-08-19T09:55:23;14.80;;;9.50;;
3647;SDS011;1840;48.892;15.312;2022-08-19T09:57:59;23.17;;;10.07;;
3647;SDS011;1840;48.892;15.312;2022-08-19T10:00:28;17.83;;;10.57;;
3647;SDS011;1840;48.892;15.312;2022-08-19T10:02:57;13.37;;;9.00;;
3647;SDS011;1840;48.892;15.312;2022-08-19T10:05:26;13.70;;;9.33;;
3647;SDS011;1840;48.892;15.312;2022-08-19T10:08:14;12.80;;;8.90;;
3647;SDS011;1840;48.892;15.312;2022-08-19T10:10:43;14.90;;;9.70;;
3647;SDS011;1840;48.892;15.312;2022-08-19T10:13:15;14.77;;;8.40;;
3647;SDS011;1840;48.892;15.312;2022-08-19T10:15:44;16.67;;;9.30;;
3647;SDS011;1840;48.892;15.312;2022-08-19T10:18:14;12.83;;;8.50;;
3647;SDS011;1840;48.892;15.312;2022-08-19T10:20:44;14.03;;;8.10;;
3647;SDS011;1840;48.892;15.312;2022-08-19T10:23:18;17.40;;;9.50;;
3647;SDS011;1840;48.892;15.312;2022-08-19T10:25:47;14.80;;;9.33;;
3647;SDS011;1840;48.892;15.312;2022-08-19T10:28:17;12.27;;;9.20;;
3647;SDS011;1840;48.892;15.312;2022-08-19T10:30:45;14.83;;;8.50;;
3647;SDS011;1840;48.892;15.312;2022-08-19T10:33:14;12.83;;;8.50;;
3647;SDS011;1840;48.892;15.312;2022-08-19T10:36:03;12.37;;;7.80;;
3647;SDS011;1840;48.892;15.312;2022-08-19T10:38:33;13.50;;;8.30;;
3647;SDS011;1840;48.892;15.312;2022-08-19T10:41:08;12.70;;;8.97;;
3647;SDS011;1840;48.892;15.312;2022-08-19T10:43:39;13.43;;;8.23;;
3647;SDS011;1840;48.892;15.312;2022-08-19T10:46:08;12.83;;;8.60;;
3647;SDS011;1840;48.892;15.312;2022-08-19T10:48:42;12.60;;;7.97;;
3647;SDS011;1840;48.892;15.312;2022-08-19T10:51:11;12.13;;;8.03;;
3647;SDS011;1840;48.892;15.312;2022-08-19T10:53:56;12.30;;;7.87;;
3647;SDS011;1840;48.892;15.312;2022-08-19T10:56:25;12.60;;;8.73;;
3647;SDS011;1840;48.892;15.312;2022-08-19T10:59:13;14.33;;;8.30;;
3647;SDS011;1840;48.892;15.312;2022-08-19T11:01:43;23.13;;;9.47;;
3647;SDS011;1840;48.892;15.312;2022-08-19T11:04:14;13.37;;;7.47;;
3647;SDS011;1840;48.892;15.312;2022-08-19T11:06:43;14.60;;;7.80;;
3647;SDS011;1840;48.892;15.312;2022-08-19T11:09:14;13.20;;;7.30;;
3647;SDS011;1840;48.892;15.312;2022-08-19T11:11:43;11.03;;;7.00;;
3647;SDS011;1840;48.892;15.312;2022-08-19T11:14:16;11.57;;;7.43;;
3647;SDS011;1840;48.892;15.312;2022-08-19T11:16:46;13.60;;;7.57;;
3647;SDS011;1840;48.892;15.312;2022-08-19T11:19:15;10.93;;;6.67;;
3647;SDS011;1840;48.892;15.312;2022-08-19T11:21:45;11.07;;;6.70;;
3647;SDS011;1840;48.892;15.312;2022-08-19T11:24:15;11.87;;;7.67;;
3647;SDS011;1840;48.892;15.312;2022-08-19T11:26:47;12.13;;;6.53;;
3647;SDS011;1840;48.892;15.312;2022-08-19T11:29:19;11.13;;;7.03;;
3647;SDS011;1840;48.892;15.312;2022-08-19T11:31:51;10.83;;;6.80;;
3647;SDS011;1840;48.892;15.312;2022-08-19T11:34:21;11.40;;;6.77;;
3647;SDS011;1840;48.892;15.312;2022-08-19T11:36:53;15.60;;;7.17;;
3647;SDS011;1840;48.892;15.312;2022-08-19T11:39:24;9.37;;;6.63;;
3647;SDS011;1840;48.892;15.312;2022-08-19T11:41:53;13.80;;;6.90;;
3647;SDS011;1840;48.892;15.312;2022-08-19T11:44:23;13.50;;;7.23;;
3647;SDS011;1840;48.892;15.312;2022-08-19T11:46:52;13.50;;;7.60;;
3647;SDS011;1840;48.892;15.312;2022-08-19T11:49:21;12.73;;;7.30;;
3647;SDS011;1840;48.892;15.312;2022-08-19T11:51:49;9.03;;;6.80;;
3647;SDS011;1840;48.892;15.312;2022-08-19T11:54:19;10.40;;;7.00;;
3647;SDS011;1840;48.892;15.312;2022-08-19T11:56:47;12.17;;;6.77;;
3647;SDS011;1840;48.892;15.312;2022-08-19T11:59:15;11.63;;;6.50;;
3647;SDS011;1840;48.892;15.312;2022-08-19T12:01:45;13.77;;;6.80;;
3647;SDS011;1840;48.892;15.312;2022-08-19T12:04:13;12.73;;;7.20;;
3647;SDS011;1840;48.892;15.312;2022-08-19T12:06:43;12.07;;;7.97;;
3647;SDS011;1840;48.892;15.312;2022-08-19T12:09:12;14.50;;;6.73;;
3647;SDS011;1840;48.892;15.312;2022-08-19T12:11:41;17.33;;;7.27;;
3647;SDS011;1840;48.892;15.312;2022-08-19T12:14:10;10.73;;;7.50;;
3647;SDS011;1840;48.892;15.312;2022-08-19T12:16:42;13.50;;;7.17;;
3647;SDS011;1840;48.892;15.312;2022-08-19T12:19:18;14.60;;;7.53;;
3647;SDS011;1840;48.892;15.312;2022-08-19T12:21:48;15.93;;;7.93;;
3647;SDS011;1840;48.892;15.312;2022-08-19T12:24:16;16.10;;;7.37;;
3647;SDS011;1840;48.892;15.312;2022-08-19T12:26:49;13.67;;;7.00;;
3647;SDS011;1840;48.892;15.312;2022-08-19T12:29:19;13.43;;;8.00;;
3647;SDS011;1840;48.892;15.312;2022-08-19T12:31:50;13.20;;;7.27;;
3647;SDS011;1840;48.892;15.312;2022-08-19T12:34:19;12.27;;;8.00;;
3647;SDS011;1840;48.892;15.312;2022-08-19T12:36:47;16.20;;;7.03;;
3647;SDS011;1840;48.892;15.312;2022-08-19T12:39:16;16.00;;;6.93;;
3647;SDS011;1840;48.892;15.312;2022-08-19T12:41:44;10.53;;;7.00;;
3647;SDS011;1840;48.892;15.312;2022-08-19T12:44:20;10.30;;;6.17;;
3647;SDS011;1840;48.892;15.312;2022-08-19T12:46:56;13.83;;;6.87;;
3647;SDS011;1840;48.892;15.312;2022-08-19T12:49:26;17.43;;;5.83;;
3647;SDS011;1840;48.892;15.312;2022-08-19T12:52:15;10.23;;;5.90;;
3647;SDS011;1840;48.892;15.312;2022-08-19T12:54:49;14.60;;;6.37;;
3647;SDS011;1840;48.892;15.312;2022-08-19T12:57:20;11.80;;;6.20;;
3647;SDS011;1840;48.892;15.312;2022-08-19T12:59:57;15.03;;;6.37;;
3647;SDS011;1840;48.892;15.312;2022-08-19T13:02:31;24.40;;;7.37;;
3647;SDS011;1840;48.892;15.312;2022-08-19T13:05:05;16.73;;;6.80;;
3647;SDS011;1840;48.892;15.312;2022-08-19T13:07:37;18.53;;;5.30;;
3647;SDS011;1840;48.892;15.312;2022-08-19T13:10:06;18.03;;;5.50;;
3647;SDS011;1840;48.892;15.312;2022-08-19T13:12:37;19.67;;;5.10;;
3647;SDS011;1840;48.892;15.312;2022-08-19T13:15:05;14.07;;;5.50;;
3647;SDS011;1840;48.892;15.312;2022-08-19T13:17:38;17.03;;;4.90;;
3647;SDS011;1840;48.892;15.312;2022-08-19T13:20:07;13.83;;;5.27;;
3647;SDS011;1840;48.892;15.312;2022-08-19T13:22:37;19.30;;;6.10;;
3647;SDS011;1840;48.892;15.312;2022-08-19T13:25:06;16.93;;;6.00;;
3647;SDS011;1840;48.892;15.312;2022-08-19T13:27:35;16.10;;;6.27;;
3647;SDS011;1840;48.892;15.312;2022-08-19T13:30:04;18.87;;;5.33;;
3647;SDS011;1840;48.892;15.312;2022-08-19T13:32:54;12.50;;;5.33;;
3647;SDS011;1840;48.892;15.312;2022-08-19T13:35:43;21.77;;;5.83;;
3647;SDS011;1840;48.892;15.312;2022-08-19T13:38:14;10.63;;;5.30;;
3647;SDS011;1840;48.892;15.312;2022-08-19T13:40:43;17.33;;;6.27;;
3647;SDS011;1840;48.892;15.312;2022-08-19T13:43:12;13.13;;;6.17;;
3647;SDS011;1840;48.892;15.312;2022-08-19T13:45:49;23.50;;;7.50;;
3647;SDS011;1840;48.892;15.312;2022-08-19T13:48:24;13.90;;;6.20;;
3647;SDS011;1840;48.892;15.312;2022-08-19T13:50:53;14.73;;;5.80;;
3647;SDS011;1840;48.892;15.312;2022-08-19T13:53:21;17.50;;;6.47;;
3647;SDS011;1840;48.892;15.312;2022-08-19T13:55:50;13.40;;;6.63;;
3647;SDS011;1840;48.892;15.312;2022-08-19T13:58:19;13.50;;;6.80;;
3647;SDS011;1840;48.892;15.312;2022-08-19T14:00:48;13.77;;;6.23;;
3647;SDS011;1840;48.892;15.312;2022-08-19T14:03:17;15.23;;;6.43;;
3647;SDS011;1840;48.892;15.312;2022-08-19T14:05:46;18.70;;;6.53;;
3647;SDS011;1840;48.892;15.312;2022-08-19T14:08:14;11.80;;;5.47;;
3647;SDS011;1840;48.892;15.312;2022-08-19T14:10:43;14.23;;;6.40;;
3647;SDS011;1840;48.892;15.312;2022-08-19T14:13:13;16.23;;;7.00;;
3647;SDS011;1840;48.892;15.312;2022-08-19T14:15:43;20.07;;;6.67;;
3647;SDS011;1840;48.892;15.312;2022-08-19T14:18:12;15.37;;;6.13;;
3647;SDS011;1840;48.892;15.312;2022-08-19T14:20:40;8.33;;;4.90;;
3647;SDS011;1840;48.892;15.312;2022-08-19T14:23:11;27.43;;;6.20;;
3647;SDS011;1840;48.892;15.312;2022-08-19T14:25:40;17.33;;;6.43;;
3647;SDS011;1840;48.892;15.312;2022-08-19T14:28:08;13.33;;;6.03;;
3647;SDS011;1840;48.892;15.312;2022-08-19T14:30:37;12.97;;;5.93;;
3647;SDS011;1840;48.892;15.312;2022-08-19T14:33:06;13.20;;;5.93;;
3647;SDS011;1840;48.892;15.312;2022-08-19T14:35:35;15.93;;;6.70;;
3647;SDS011;1840;48.892;15.312;2022-08-19T14:38:04;14.90;;;7.60;;
3647;SDS011;1840;48.892;15.312;2022-08-19T14:40:35;18.57;;;6.40;;
3647;SDS011;1840;48.892;15.312;2022-08-19T14:43:04;13.27;;;7.60;;
3647;SDS011;1840;48.892;15.312;2022-08-19T14:45:34;25.63;;;7.73;;
3647;SDS011;1840;48.892;15.312;2022-08-19T14:48:03;19.90;;;6.80;;
3647;SDS011;1840;48.892;15.312;2022-08-19T14:50:32;15.00;;;7.10;;
3647;SDS011;1840;48.892;15.312;2022-08-19T14:53:04;24.43;;;6.83;;
3647;SDS011;1840;48.892;15.312;2022-08-19T14:55:41;13.87;;;6.63;;
3647;SDS011;1840;48.892;15.312;2022-08-19T14:58:11;18.33;;;7.50;;
3647;SDS011;1840;48.892;15.312;2022-08-19T15:00:55;19.63;;;6.77;;
3647;SDS011;1840;48.892;15.312;2022-08-19T15:03:24;13.13;;;6.90;;
3647;SDS011;1840;48.892;15.312;2022-08-19T15:05:53;19.47;;;7.00;;
3647;SDS011;1840;48.892;15.312;2022-08-19T15:08:24;22.00;;;6.50;;
3647;SDS011;1840;48.892;15.312;2022-08-19T15:10:55;16.57;;;6.67;;
3647;SDS011;1840;48.892;15.312;2022-08-19T15:13:23;18.67;;;6.27;;
3647;SDS011;1840;48.892;15.312;2022-08-19T15:15:53;13.20;;;5.60;;